Map

Track Data

SID SEASON NUMBER BASIN SUBBASIN NAME ISO_TIME NATURE LAT LON WMO_WIND WMO_PRES WMO_AGENCY TRACK_TYPE DIST2LAND LANDFALL IFLAG USA_AGENCY USA_ATCF_ID USA_LAT USA_LON USA_RECORD USA_STATUS USA_WIND USA_PRES USA_SSHS USA_R34_NE USA_R34_SE USA_R34_SW USA_R34_NW USA_R50_NE USA_R50_SE USA_R50_SW USA_R50_NW USA_R64_NE USA_R64_SE USA_R64_SW USA_R64_NW USA_POCI USA_ROCI USA_RMW USA_EYE TOKYO_LAT TOKYO_LON TOKYO_GRADE TOKYO_WIND TOKYO_PRES TOKYO_R50_DIR TOKYO_R50_LONG TOKYO_R50_SHORT TOKYO_R30_DIR TOKYO_R30_LONG TOKYO_R30_SHORT TOKYO_LAND CMA_LAT CMA_LON CMA_CAT CMA_WIND CMA_PRES HKO_LAT HKO_LON HKO_CAT HKO_WIND HKO_PRES NEWDELHI_LAT NEWDELHI_LON NEWDELHI_GRADE NEWDELHI_WIND NEWDELHI_PRES NEWDELHI_CI NEWDELHI_DP NEWDELHI_POCI REUNION_LAT REUNION_LON REUNION_TYPE REUNION_WIND REUNION_PRES REUNION_TNUM REUNION_CI REUNION_RMW REUNION_R34_NE REUNION_R34_SE REUNION_R34_SW REUNION_R34_NW REUNION_R50_NE REUNION_R50_SE REUNION_R50_SW REUNION_R50_NW REUNION_R64_NE REUNION_R64_SE REUNION_R64_SW REUNION_R64_NW BOM_LAT BOM_LON BOM_TYPE BOM_WIND BOM_PRES BOM_TNUM BOM_CI BOM_RMW BOM_R34_NE BOM_R34_SE BOM_R34_SW BOM_R34_NW BOM_R50_NE BOM_R50_SE BOM_R50_SW BOM_R50_NW BOM_R64_NE BOM_R64_SE BOM_R64_SW BOM_R64_NW BOM_ROCI BOM_POCI BOM_EYE BOM_POS_METHOD BOM_PRES_METHOD NADI_LAT NADI_LON NADI_CAT NADI_WIND NADI_PRES WELLINGTON_LAT WELLINGTON_LON WELLINGTON_WIND WELLINGTON_PRES DS824_LAT DS824_LON DS824_STAGE DS824_WIND DS824_PRES TD9636_LAT TD9636_LON TD9636_STAGE TD9636_WIND TD9636_PRES TD9635_LAT TD9635_LON TD9635_WIND TD9635_PRES TD9635_ROCI NEUMANN_LAT NEUMANN_LON NEUMANN_CLASS NEUMANN_WIND NEUMANN_PRES MLC_LAT MLC_LON MLC_CLASS MLC_WIND MLC_PRES USA_GUST BOM_GUST BOM_GUST_PER REUNION_GUST REUNION_GUST_PER USA_SEAHGT USA_SEARAD_NE USA_SEARAD_SE USA_SEARAD_SW USA_SEARAD_NW STORM_SPEED STORM_DIR
1962269N17251 1962 86 EP MM NOT_NAMED 1962-09-26 00:00:00 TS 17.0000 -109.000 45 hurdat_epa main 493 493 O________OO___ hurdat_epa EP081962 17.0000 -109.000 TS 45 0 17.0000 -109.000 TC 45 17.0000 -109.000 2 7 269
1962269N17251 1962 86 EP MM NOT_NAMED 1962-09-26 03:00:00 TS 16.9958 -109.356 main 527 527 P________PP___ EP081962 16.9926 -109.358 TS 45 0 16.9926 -109.358 TC 45 17.0084 -109.352 2 7 270
1962269N17251 1962 86 EP MM NOT_NAMED 1962-09-26 06:00:00 TS 17.0046 -109.699 45 hurdat_epa main 553 553 O________OP___ hurdat_epa EP081962 17.0000 -109.700 TS 45 0 17.0000 -109.700 TC 45 17.0232 -109.693 2 6 274
1962269N17251 1962 86 EP MM NOT_NAMED 1962-09-26 09:00:00 TS 17.0382 -110.014 main 580 580 P________PP___ EP081962 17.0350 -110.015 TS 45 0 17.0350 -110.015 TC 45 17.0513 -110.012 2 6 279
1962269N17251 1962 86 EP MM NOT_NAMED 1962-09-26 12:00:00 TS 17.1000 -110.300 45 hurdat_epa main 601 601 O________OO___ hurdat_epa EP081962 17.1000 -110.300 TS 45 0 17.1000 -110.300 TC 45 17.1000 -110.300 2 5 286
1962269N17251 1962 86 EP MM NOT_NAMED 1962-09-26 15:00:00 TS 17.1888 -110.562 main 622 622 P________PP___ EP081962 17.1925 -110.565 TS 45 0 17.1925 -110.565 TC 45 17.1741 -110.550 2 5 292
1962269N17251 1962 86 EP MM NOT_NAMED 1962-09-26 18:00:00 TS 17.2939 -110.795 45 hurdat_epa main 631 622 O________OP___ hurdat_epa EP081962 17.3000 -110.800 TS 45 0 17.3000 -110.800 TC 45 17.2696 -110.773 2 5 296
1962269N17251 1962 86 EP MM NOT_NAMED 1962-09-26 21:00:00 TS 17.3900 -110.997 main 623 614 P________PP___ EP081962 17.3924 -111.000 TS 45 0 17.3924 -111.000 TC 45 17.3804 -110.984 2 4 298
1962269N17251 1962 86 EP MM NOT_NAMED 1962-09-27 00:00:00 TS 17.5000 -111.200 45 hurdat_epa main 616 608 O________OO___ hurdat_epa EP081962 17.5000 -111.200 TS 45 0 17.5000 -111.200 TC 45 17.5000 -111.200 2 5 301
1962269N17251 1962 86 EP MM NOT_NAMED 1962-09-27 03:00:00 TS 17.6444 -111.443 main 610 594 P________PP___ EP081962 17.6500 -111.442 TS 45 0 17.6500 -111.442 TC 45 17.6218 -111.443 2 6 301
1962269N17251 1962 86 EP MM NOT_NAMED 1962-09-27 06:00:00 TS 17.7900 -111.699 45 hurdat_epa main 597 589 O________OP___ hurdat_epa EP081962 17.8000 -111.700 TS 45 0 17.8000 -111.700 TC 45 17.7499 -111.692 2 5 298
1962269N17251 1962 86 EP MM NOT_NAMED 1962-09-27 09:00:00 TS 17.9016 -111.949 main 593 590 P________PP___ EP081962 17.9075 -111.950 TS 45 0 17.9075 -111.950 TC 45 17.8781 -111.946 2 5 294
1962269N17251 1962 86 EP MM NOT_NAMED 1962-09-27 12:00:00 TS 18.0000 -112.200 45 hurdat_epa main 593 587 O________OO___ hurdat_epa EP081962 18.0000 -112.200 TS 45 0 18.0000 -112.200 TC 45 18.0000 -112.200 2 5 293
1962269N17251 1962 86 EP MM NOT_NAMED 1962-09-27 15:00:00 TS 18.1006 -112.451 main 596 591 P________PP___ EP081962 18.1000 -112.450 TS 45 0 18.1000 -112.450 TC 45 18.1031 -112.454 2 5 293
1962269N17251 1962 86 EP MM NOT_NAMED 1962-09-27 18:00:00 TS 18.2000 -112.702 45 hurdat_epa main 596 591 O________OP___ hurdat_epa EP081962 18.2000 -112.700 TS 45 0 18.2000 -112.700 TC 45 18.1999 -112.708 2 5 292
1962269N17251 1962 86 EP MM NOT_NAMED 1962-09-27 21:00:00 TS 18.2934 -112.958 main 601 597 P________PP___ EP081962 18.2925 -112.958 TS 45 0 18.2925 -112.958 TC 45 18.2968 -112.957 2 5 293
1962269N17251 1962 86 EP MM NOT_NAMED 1962-09-28 00:00:00 TS 18.4000 -113.200 45 hurdat_epa main 603 599 O________OO___ hurdat_epa EP081962 18.4000 -113.200 TS 45 0 18.4000 -113.200 TC 45 18.4000 -113.200 2 5 301
1962269N17251 1962 86 EP MM NOT_NAMED 1962-09-28 03:00:00 TS 18.5459 -113.405 main 605 594 P________PP___ EP081962 18.5499 -113.400 TS 45 0 18.5499 -113.400 TC 45 18.5298 -113.424 2 5 307
1962269N17251 1962 86 EP MM NOT_NAMED 1962-09-28 06:00:00 TS 18.6929 -113.608 45 hurdat_epa main 600 598 O________OP___ hurdat_epa EP081962 18.7000 -113.600 TS 45 0 18.7000 -113.600 TC 45 18.6647 -113.642 2 5 302
1962269N17251 1962 86 EP MM NOT_NAMED 1962-09-28 09:00:00 TS 18.8105 -113.847 main 604 604 P________PP___ EP081962 18.8150 -113.843 TS 45 0 18.8150 -113.843 TC 45 18.7923 -113.865 2 5 294
1962269N17251 1962 86 EP MM NOT_NAMED 1962-09-28 12:00:00 TS 18.9000 -114.100 45 hurdat_epa main 617 617 O________OO___ hurdat_epa EP081962 18.9000 -114.100 TS 45 0 18.9000 -114.100 TC 45 18.9000 -114.100 2 5 288
1962269N17251 1962 86 EP MM NOT_NAMED 1962-09-28 15:00:00 TS 18.9603 -114.348 main 624 624 P________PP___ EP081962 18.9574 -114.343 TS 45 0 18.9574 -114.343 TC 45 18.9716 -114.369 2 5 282
1962269N17251 1962 86 EP MM NOT_NAMED 1962-09-28 18:00:00 TS 19.0045 -114.610 45 hurdat_epa main 646 646 O________OP___ hurdat_epa EP081962 19.0000 -114.600 TS 45 0 19.0000 -114.600 TC 45 19.0226 -114.650 2 5 280
1962269N17251 1962 86 EP MM NOT_NAMED 1962-09-28 21:00:00 TS 19.0525 -114.906 main 662 662 P________PP___ EP081962 19.0500 -114.900 TS 45 0 19.0500 -114.900 TC 45 19.0622 -114.931 2 6 280
1962269N17251 1962 86 EP MM NOT_NAMED 1962-09-29 00:00:00 TS 19.1000 -115.200 45 hurdat_epa main 686 686 O________OO___ hurdat_epa EP081962 19.1000 -115.200 TS 45 0 19.1000 -115.200 TC 45 19.1000 -115.200 2 5 280
1962269N17251 1962 86 EP MM NOT_NAMED 1962-09-29 03:00:00 TS 19.1475 -115.461 main 711 704 P________PP___ EP081962 19.1500 -115.465 TS 45 0 19.1500 -115.465 TC 45 19.1377 -115.444 2 5 282
1962269N17251 1962 86 EP MM NOT_NAMED 1962-09-29 06:00:00 TS 19.1955 -115.695 45 hurdat_epa main 716 716 O________OP___ hurdat_epa EP081962 19.2000 -115.700 TS 45 0 19.2000 -115.700 TC 45 19.1773 -115.673 2 4 282
1962269N17251 1962 86 EP MM NOT_NAMED 1962-09-29 09:00:00 TS 19.2396 -115.904 main 727 718 P________PP___ EP081962 19.2425 -115.908 TS 45 0 19.2425 -115.908 TC 45 19.2283 -115.890 2 4 285
1962269N17251 1962 86 EP MM NOT_NAMED 1962-09-29 12:00:00 TS 19.3000 -116.100 45 hurdat_epa main 730 727 O________OO___ hurdat_epa EP081962 19.3000 -116.100 TS 45 0 19.3000 -116.100 TC 45 19.3000 -116.100 2 4 292
1962269N17251 1962 86 EP MM NOT_NAMED 1962-09-29 15:00:00 TS 19.3894 -116.298 main 733 730 P________PP___ EP081962 19.3850 -116.300 TS 45 0 19.3850 -116.300 TC 45 19.4073 -116.291 2 4 299
1962269N17251 1962 86 EP MM NOT_NAMED 1962-09-29 18:00:00 MX 19.5069 -116.496 45 hurdat_epa main 736 734 O________OP___ hurdat_epa EP081962 19.5000 -116.500 TS 45 0 19.5000 -116.500 45 19.5346 -116.478 2 5 306
1962269N17251 1962 86 EP MM NOT_NAMED 1962-09-29 21:00:00 MX 19.6539 -116.683 main 732 730 P________PP___ EP081962 19.6499 -116.685 TS 45 0 19.6499 -116.685 45 19.6697 -116.675 2 5 308
1962269N17251 1962 86 EP MM NOT_NAMED 1962-09-30 00:00:00 MX 19.8000 -116.900 45 hurdat_epa main 737 735 O________OO___ hurdat_epa EP081962 19.8000 -116.900 TS 45 0 19.8000 -116.900 45 19.8000 -116.900 2 5 299
1962269N17251 1962 86 EP MM NOT_NAMED 1962-09-30 03:00:00 MX 19.9092 -117.181 main 750 749 P________PP___ EP081962 19.9075 -117.185 TS 45 0 19.9075 -117.185 45 19.9157 -117.163 2 6 290
1962269N17251 1962 86 EP MM NOT_NAMED 1962-09-30 06:00:00 MX 20.0036 -117.491 45 hurdat_epa main 764 763 O________OP___ hurdat_epa EP081962 20.0000 -117.500 TS 45 0 20.0000 -117.500 45 20.0182 -117.457 2 6 288
1962269N17251 1962 86 EP MM NOT_NAMED 1962-09-30 09:00:00 MX 20.1004 -117.799 main 778 778 P________PP___ EP081962 20.0976 -117.805 TS 45 0 20.0976 -117.805 45 20.1115 -117.773 2 6 289
1962269N17251 1962 86 EP MM NOT_NAMED 1962-09-30 12:00:00 MX 20.2000 -118.100 45 hurdat_epa main 794 O________OO___ hurdat_epa EP081962 20.2000 -118.100 TS 45 0 20.2000 -118.100 45 20.2000 -118.100 2 6 289

About IBTrACS Database

This database is a web-friendly format of International Best Track Archive for Climate Stewardship (IBTrACS), a global best track data archive curated by NOAA dating back to 1842.

Updated: 2021-12-06